sensor_id;sensor_type;location;lat;lon;timestamp;P1;durP1;ratioP1;P2;durP2;ratioP2
18214;SDS011;9233;51.312;6.512;2022-07-15T00:00:22;3.30;;;0.90;;
18214;SDS011;9233;51.312;6.512;2022-07-15T00:03:09;3.13;;;1.20;;
18214;SDS011;9233;51.312;6.512;2022-07-15T00:05:55;4.80;;;1.03;;
18214;SDS011;9233;51.312;6.512;2022-07-15T00:08:42;5.00;;;1.23;;
18214;SDS011;9233;51.312;6.512;2022-07-15T00:11:28;1.53;;;0.90;;
18214;SDS011;9233;51.312;6.512;2022-07-15T00:14:16;5.37;;;1.20;;
18214;SDS011;9233;51.312;6.512;2022-07-15T00:17:03;4.43;;;1.40;;
18214;SDS011;9233;51.312;6.512;2022-07-15T00:19:51;4.10;;;1.03;;
18214;SDS011;9233;51.312;6.512;2022-07-15T00:22:38;2.53;;;0.90;;
18214;SDS011;9233;51.312;6.512;2022-07-15T00:25:25;3.17;;;1.00;;
18214;SDS011;9233;51.312;6.512;2022-07-15T00:28:12;2.20;;;1.10;;
18214;SDS011;9233;51.312;6.512;2022-07-15T00:31:00;6.23;;;1.80;;
18214;SDS011;9233;51.312;6.512;2022-07-15T00:33:47;4.60;;;1.83;;
18214;SDS011;9233;51.312;6.512;2022-07-15T00:36:34;1.77;;;0.80;;
18214;SDS011;9233;51.312;6.512;2022-07-15T00:39:21;2.63;;;0.80;;
18214;SDS011;9233;51.312;6.512;2022-07-15T00:42:07;6.77;;;1.23;;
18214;SDS011;9233;51.312;6.512;2022-07-15T00:45:18;4.27;;;0.97;;
18214;SDS011;9233;51.312;6.512;2022-07-15T00:48:07;1.27;;;0.87;;
18214;SDS011;9233;51.312;6.512;2022-07-15T00:50:53;3.60;;;0.90;;
18214;SDS011;9233;51.312;6.512;2022-07-15T00:53:40;4.70;;;1.17;;
18214;SDS011;9233;51.312;6.512;2022-07-15T00:56:27;3.30;;;1.20;;
18214;SDS011;9233;51.312;6.512;2022-07-15T00:59:14;3.43;;;0.93;;
18214;SDS011;9233;51.312;6.512;2022-07-15T01:02:01;2.33;;;0.70;;
18214;SDS011;9233;51.312;6.512;2022-07-15T01:04:49;2.57;;;0.87;;
18214;SDS011;9233;51.312;6.512;2022-07-15T01:07:36;3.93;;;1.10;;
18214;SDS011;9233;51.312;6.512;2022-07-15T01:10:24;4.93;;;1.20;;
18214;SDS011;9233;51.312;6.512;2022-07-15T01:13:11;3.97;;;1.00;;
18214;SDS011;9233;51.312;6.512;2022-07-15T01:15:58;3.03;;;1.10;;
18214;SDS011;9233;51.312;6.512;2022-07-15T01:18:45;3.57;;;1.00;;
18214;SDS011;9233;51.312;6.512;2022-07-15T01:21:33;3.97;;;1.10;;
18214;SDS011;9233;51.312;6.512;2022-07-15T01:24:20;3.10;;;1.10;;
18214;SDS011;9233;51.312;6.512;2022-07-15T01:27:17;1.73;;;0.90;;
18214;SDS011;9233;51.312;6.512;2022-07-15T01:30:05;2.43;;;1.10;;
18214;SDS011;9233;51.312;6.512;2022-07-15T01:32:52;1.97;;;1.03;;
18214;SDS011;9233;51.312;6.512;2022-07-15T01:35:39;2.50;;;1.03;;
18214;SDS011;9233;51.312;6.512;2022-07-15T01:38:28;4.90;;;1.33;;
18214;SDS011;9233;51.312;6.512;2022-07-15T01:41:19;4.70;;;1.20;;
18214;SDS011;9233;51.312;6.512;2022-07-15T01:44:08;4.40;;;1.13;;
18214;SDS011;9233;51.312;6.512;2022-07-15T01:46:55;3.97;;;1.30;;
18214;SDS011;9233;51.312;6.512;2022-07-15T01:49:47;2.43;;;1.20;;
18214;SDS011;9233;51.312;6.512;2022-07-15T01:52:40;4.67;;;1.23;;
18214;SDS011;9233;51.312;6.512;2022-07-15T01:55:28;7.87;;;1.50;;
18214;SDS011;9233;51.312;6.512;2022-07-15T01:58:17;7.70;;;1.37;;
18214;SDS011;9233;51.312;6.512;2022-07-15T02:01:05;2.63;;;1.07;;
18214;SDS011;9233;51.312;6.512;2022-07-15T02:03:53;4.93;;;1.67;;
18214;SDS011;9233;51.312;6.512;2022-07-15T02:06:40;2.30;;;1.00;;
18214;SDS011;9233;51.312;6.512;2022-07-15T02:09:27;3.27;;;1.10;;
18214;SDS011;9233;51.312;6.512;2022-07-15T02:12:15;4.20;;;1.17;;
18214;SDS011;9233;51.312;6.512;2022-07-15T02:15:08;4.00;;;1.10;;
18214;SDS011;9233;51.312;6.512;2022-07-15T02:18:08;3.40;;;1.13;;
18214;SDS011;9233;51.312;6.512;2022-07-15T02:20:55;3.53;;;1.30;;
18214;SDS011;9233;51.312;6.512;2022-07-15T02:23:42;6.50;;;1.10;;
18214;SDS011;9233;51.312;6.512;2022-07-15T02:26:29;3.17;;;1.03;;
18214;SDS011;9233;51.312;6.512;2022-07-15T02:29:17;3.83;;;1.00;;
18214;SDS011;9233;51.312;6.512;2022-07-15T02:32:04;2.93;;;1.00;;
18214;SDS011;9233;51.312;6.512;2022-07-15T02:34:51;2.63;;;0.90;;
18214;SDS011;9233;51.312;6.512;2022-07-15T02:37:38;4.03;;;0.97;;
18214;SDS011;9233;51.312;6.512;2022-07-15T02:40:25;5.03;;;1.33;;
18214;SDS011;9233;51.312;6.512;2022-07-15T02:43:11;5.17;;;1.00;;
18214;SDS011;9233;51.312;6.512;2022-07-15T02:46:01;5.00;;;1.00;;
18214;SDS011;9233;51.312;6.512;2022-07-15T02:48:50;3.13;;;1.00;;
18214;SDS011;9233;51.312;6.512;2022-07-15T02:51:37;2.40;;;1.47;;
18214;SDS011;9233;51.312;6.512;2022-07-15T02:54:25;6.73;;;1.17;;
18214;SDS011;9233;51.312;6.512;2022-07-15T02:57:12;4.13;;;1.17;;
18214;SDS011;9233;51.312;6.512;2022-07-15T03:00:00;4.50;;;0.90;;
18214;SDS011;9233;51.312;6.512;2022-07-15T03:02:51;3.13;;;1.00;;
18214;SDS011;9233;51.312;6.512;2022-07-15T03:05:38;4.63;;;1.07;;
18214;SDS011;9233;51.312;6.512;2022-07-15T03:08:27;4.13;;;1.30;;
18214;SDS011;9233;51.312;6.512;2022-07-15T03:11:14;4.97;;;1.37;;
18214;SDS011;9233;51.312;6.512;2022-07-15T03:14:03;3.47;;;1.13;;
18214;SDS011;9233;51.312;6.512;2022-07-15T03:16:50;3.90;;;1.80;;
18214;SDS011;9233;51.312;6.512;2022-07-15T03:19:38;2.53;;;1.20;;
18214;SDS011;9233;51.312;6.512;2022-07-15T03:22:25;2.43;;;1.00;;
18214;SDS011;9233;51.312;6.512;2022-07-15T03:25:13;3.53;;;1.07;;
18214;SDS011;9233;51.312;6.512;2022-07-15T03:28:00;4.80;;;1.40;;
18214;SDS011;9233;51.312;6.512;2022-07-15T03:30:52;3.03;;;1.30;;
18214;SDS011;9233;51.312;6.512;2022-07-15T03:33:39;4.40;;;1.30;;
18214;SDS011;9233;51.312;6.512;2022-07-15T03:36:29;5.07;;;1.50;;
18214;SDS011;9233;51.312;6.512;2022-07-15T03:39:15;6.63;;;1.33;;
18214;SDS011;9233;51.312;6.512;2022-07-15T03:42:02;3.27;;;1.30;;
18214;SDS011;9233;51.312;6.512;2022-07-15T03:44:49;5.30;;;1.40;;
18214;SDS011;9233;51.312;6.512;2022-07-15T03:47:37;6.30;;;1.70;;
18214;SDS011;9233;51.312;6.512;2022-07-15T03:50:26;3.90;;;1.40;;
18214;SDS011;9233;51.312;6.512;2022-07-15T03:53:16;6.10;;;1.40;;
18214;SDS011;9233;51.312;6.512;2022-07-15T03:56:02;3.53;;;1.67;;
18214;SDS011;9233;51.312;6.512;2022-07-15T03:58:49;3.73;;;1.53;;
18214;SDS011;9233;51.312;6.512;2022-07-15T04:01:36;4.33;;;1.50;;
18214;SDS011;9233;51.312;6.512;2022-07-15T04:04:23;4.47;;;1.60;;
18214;SDS011;9233;51.312;6.512;2022-07-15T04:07:10;3.37;;;1.70;;
18214;SDS011;9233;51.312;6.512;2022-07-15T04:09:58;3.90;;;1.63;;
18214;SDS011;9233;51.312;6.512;2022-07-15T04:12:45;6.33;;;1.83;;
18214;SDS011;9233;51.312;6.512;2022-07-15T04:15:33;3.30;;;1.60;;
18214;SDS011;9233;51.312;6.512;2022-07-15T04:18:19;5.60;;;1.53;;
18214;SDS011;9233;51.312;6.512;2022-07-15T04:21:06;4.13;;;1.63;;
18214;SDS011;9233;51.312;6.512;2022-07-15T04:23:53;2.70;;;1.37;;
18214;SDS011;9233;51.312;6.512;2022-07-15T04:26:41;5.07;;;1.47;;
18214;SDS011;9233;51.312;6.512;2022-07-15T04:29:27;3.83;;;1.60;;
18214;SDS011;9233;51.312;6.512;2022-07-15T04:32:15;5.33;;;1.70;;
18214;SDS011;9233;51.312;6.512;2022-07-15T04:35:06;5.70;;;2.03;;
18214;SDS011;9233;51.312;6.512;2022-07-15T04:37:54;4.00;;;1.60;;
18214;SDS011;9233;51.312;6.512;2022-07-15T04:40:41;4.17;;;1.63;;
18214;SDS011;9233;51.312;6.512;2022-07-15T04:43:29;6.20;;;2.07;;
18214;SDS011;9233;51.312;6.512;2022-07-15T04:46:16;5.33;;;1.80;;
18214;SDS011;9233;51.312;6.512;2022-07-15T04:49:08;3.40;;;1.90;;
18214;SDS011;9233;51.312;6.512;2022-07-15T04:52:12;4.13;;;1.57;;
18214;SDS011;9233;51.312;6.512;2022-07-15T04:55:02;4.77;;;1.60;;
18214;SDS011;9233;51.312;6.512;2022-07-15T04:57:49;4.37;;;1.50;;
18214;SDS011;9233;51.312;6.512;2022-07-15T05:00:37;5.10;;;1.53;;
18214;SDS011;9233;51.312;6.512;2022-07-15T05:03:29;2.50;;;1.50;;
18214;SDS011;9233;51.312;6.512;2022-07-15T05:06:15;5.10;;;1.60;;
18214;SDS011;9233;51.312;6.512;2022-07-15T05:09:03;2.93;;;1.60;;
18214;SDS011;9233;51.312;6.512;2022-07-15T05:11:53;5.37;;;1.37;;
18214;SDS011;9233;51.312;6.512;2022-07-15T05:14:39;3.73;;;1.40;;
18214;SDS011;9233;51.312;6.512;2022-07-15T05:17:28;4.07;;;1.60;;
18214;SDS011;9233;51.312;6.512;2022-07-15T05:20:15;4.07;;;1.27;;
18214;SDS011;9233;51.312;6.512;2022-07-15T05:23:02;4.83;;;1.43;;
18214;SDS011;9233;51.312;6.512;2022-07-15T05:25:53;3.77;;;1.33;;
18214;SDS011;9233;51.312;6.512;2022-07-15T05:28:40;3.80;;;1.20;;
18214;SDS011;9233;51.312;6.512;2022-07-15T05:31:27;4.50;;;1.10;;
18214;SDS011;9233;51.312;6.512;2022-07-15T05:34:18;5.07;;;1.30;;
18214;SDS011;9233;51.312;6.512;2022-07-15T05:37:05;3.83;;;1.33;;
18214;SDS011;9233;51.312;6.512;2022-07-15T05:39:53;3.40;;;1.10;;
18214;SDS011;9233;51.312;6.512;2022-07-15T05:42:47;2.83;;;1.10;;
18214;SDS011;9233;51.312;6.512;2022-07-15T05:45:33;1.90;;;1.00;;
18214;SDS011;9233;51.312;6.512;2022-07-15T05:48:24;2.63;;;0.93;;
18214;SDS011;9233;51.312;6.512;2022-07-15T05:51:15;2.60;;;0.93;;
18214;SDS011;9233;51.312;6.512;2022-07-15T05:54:02;3.50;;;1.10;;
18214;SDS011;9233;51.312;6.512;2022-07-15T05:56:51;4.70;;;1.10;;
18214;SDS011;9233;51.312;6.512;2022-07-15T05:59:41;6.87;;;1.13;;
18214;SDS011;9233;51.312;6.512;2022-07-15T06:02:28;5.03;;;1.40;;
18214;SDS011;9233;51.312;6.512;2022-07-15T06:05:16;6.17;;;1.20;;
18214;SDS011;9233;51.312;6.512;2022-07-15T06:08:09;2.10;;;1.00;;
18214;SDS011;9233;51.312;6.512;2022-07-15T06:10:58;5.47;;;1.10;;
18214;SDS011;9233;51.312;6.512;2022-07-15T06:13:45;4.13;;;1.00;;
18214;SDS011;9233;51.312;6.512;2022-07-15T06:16:32;5.40;;;1.10;;
18214;SDS011;9233;51.312;6.512;2022-07-15T06:19:19;3.17;;;1.00;;
18214;SDS011;9233;51.312;6.512;2022-07-15T06:22:06;4.10;;;1.00;;
18214;SDS011;9233;51.312;6.512;2022-07-15T06:24:54;7.13;;;0.97;;
18214;SDS011;9233;51.312;6.512;2022-07-15T06:27:40;4.67;;;1.00;;
18214;SDS011;9233;51.312;6.512;2022-07-15T06:30:27;4.30;;;0.90;;
18214;SDS011;9233;51.312;6.512;2022-07-15T06:33:14;3.17;;;0.90;;
18214;SDS011;9233;51.312;6.512;2022-07-15T06:36:01;5.60;;;1.00;;
18214;SDS011;9233;51.312;6.512;2022-07-15T06:38:47;5.13;;;1.30;;
18214;SDS011;9233;51.312;6.512;2022-07-15T06:44:15;2.17;;;0.90;;
18214;SDS011;9233;51.312;6.512;2022-07-15T06:47:11;2.90;;;1.53;;
18214;SDS011;9233;51.312;6.512;2022-07-15T06:49:59;2.77;;;0.70;;
18214;SDS011;9233;51.312;6.512;2022-07-15T06:52:46;5.13;;;0.90;;
18214;SDS011;9233;51.312;6.512;2022-07-15T06:55:33;2.23;;;0.80;;
18214;SDS011;9233;51.312;6.512;2022-07-15T06:58:20;4.13;;;1.10;;
18214;SDS011;9233;51.312;6.512;2022-07-15T07:01:08;1.20;;;0.73;;
18214;SDS011;9233;51.312;6.512;2022-07-15T07:03:56;4.73;;;0.70;;
18214;SDS011;9233;51.312;6.512;2022-07-15T07:06:43;6.50;;;1.00;;
18214;SDS011;9233;51.312;6.512;2022-07-15T07:09:29;4.10;;;0.83;;
18214;SDS011;9233;51.312;6.512;2022-07-15T07:12:17;1.17;;;0.67;;
18214;SDS011;9233;51.312;6.512;2022-07-15T07:15:04;2.23;;;0.80;;
18214;SDS011;9233;51.312;6.512;2022-07-15T07:17:53;7.33;;;0.90;;
18214;SDS011;9233;51.312;6.512;2022-07-15T07:20:40;3.83;;;0.87;;
18214;SDS011;9233;51.312;6.512;2022-07-15T07:23:28;2.50;;;0.80;;
18214;SDS011;9233;51.312;6.512;2022-07-15T07:26:16;3.80;;;0.83;;
18214;SDS011;9233;51.312;6.512;2022-07-15T07:29:03;3.93;;;0.70;;
18214;SDS011;9233;51.312;6.512;2022-07-15T07:31:50;3.10;;;0.80;;
18214;SDS011;9233;51.312;6.512;2022-07-15T07:34:38;4.57;;;0.73;;
18214;SDS011;9233;51.312;6.512;2022-07-15T07:37:24;5.00;;;0.77;;
18214;SDS011;9233;51.312;6.512;2022-07-15T07:40:12;1.93;;;0.60;;
18214;SDS011;9233;51.312;6.512;2022-07-15T07:43:02;2.30;;;0.80;;
18214;SDS011;9233;51.312;6.512;2022-07-15T07:45:48;2.60;;;0.80;;
18214;SDS011;9233;51.312;6.512;2022-07-15T07:48:35;1.97;;;0.93;;
18214;SDS011;9233;51.312;6.512;2022-07-15T07:51:25;1.63;;;0.70;;
18214;SDS011;9233;51.312;6.512;2022-07-15T07:54:12;2.40;;;0.70;;
18214;SDS011;9233;51.312;6.512;2022-07-15T07:56:58;2.60;;;1.37;;
18214;SDS011;9233;51.312;6.512;2022-07-15T07:59:45;3.73;;;0.80;;
18214;SDS011;9233;51.312;6.512;2022-07-15T08:02:32;3.43;;;0.70;;
18214;SDS011;9233;51.312;6.512;2022-07-15T08:05:18;2.57;;;0.57;;
18214;SDS011;9233;51.312;6.512;2022-07-15T08:08:11;1.70;;;0.90;;
18214;SDS011;9233;51.312;6.512;2022-07-15T08:10:58;2.77;;;0.60;;
18214;SDS011;9233;51.312;6.512;2022-07-15T08:13:45;3.30;;;0.87;;
18214;SDS011;9233;51.312;6.512;2022-07-15T08:16:32;1.00;;;0.63;;
18214;SDS011;9233;51.312;6.512;2022-07-15T08:19:19;2.10;;;0.50;;
18214;SDS011;9233;51.312;6.512;2022-07-15T08:22:06;4.10;;;0.60;;
18214;SDS011;9233;51.312;6.512;2022-07-15T08:24:54;2.73;;;0.70;;
18214;SDS011;9233;51.312;6.512;2022-07-15T08:27:40;2.30;;;0.83;;
18214;SDS011;9233;51.312;6.512;2022-07-15T08:30:27;4.23;;;0.90;;
18214;SDS011;9233;51.312;6.512;2022-07-15T08:33:14;5.20;;;0.93;;
18214;SDS011;9233;51.312;6.512;2022-07-15T08:36:01;3.93;;;1.00;;
18214;SDS011;9233;51.312;6.512;2022-07-15T08:38:48;2.23;;;0.60;;
18214;SDS011;9233;51.312;6.512;2022-07-15T08:41:36;2.27;;;0.73;;
18214;SDS011;9233;51.312;6.512;2022-07-15T08:44:22;3.73;;;0.63;;
18214;SDS011;9233;51.312;6.512;2022-07-15T08:47:12;2.77;;;0.50;;
18214;SDS011;9233;51.312;6.512;2022-07-15T08:50:16;3.30;;;0.93;;
18214;SDS011;9233;51.312;6.512;2022-07-15T08:53:10;2.53;;;0.50;;
18214;SDS011;9233;51.312;6.512;2022-07-15T08:55:56;1.87;;;0.80;;
18214;SDS011;9233;51.312;6.512;2022-07-15T08:58:44;2.70;;;0.70;;
18214;SDS011;9233;51.312;6.512;2022-07-15T09:01:32;1.40;;;0.43;;
18214;SDS011;9233;51.312;6.512;2022-07-15T09:04:19;1.70;;;0.77;;
18214;SDS011;9233;51.312;6.512;2022-07-15T09:07:10;1.77;;;0.60;;
18214;SDS011;9233;51.312;6.512;2022-07-15T09:09:58;1.97;;;0.53;;
18214;SDS011;9233;51.312;6.512;2022-07-15T09:12:47;2.07;;;0.60;;
18214;SDS011;9233;51.312;6.512;2022-07-15T09:15:37;1.77;;;0.70;;
18214;SDS011;9233;51.312;6.512;2022-07-15T09:18:25;2.80;;;0.70;;
18214;SDS011;9233;51.312;6.512;2022-07-15T09:21:14;3.70;;;0.53;;
18214;SDS011;9233;51.312;6.512;2022-07-15T09:24:14;2.03;;;0.50;;
18214;SDS011;9233;51.312;6.512;2022-07-15T09:27:02;1.57;;;0.50;;
18214;SDS011;9233;51.312;6.512;2022-07-15T09:30:14;2.17;;;0.67;;
18214;SDS011;9233;51.312;6.512;2022-07-15T09:33:22;1.70;;;0.70;;
18214;SDS011;9233;51.312;6.512;2022-07-15T09:36:24;1.37;;;0.73;;
18214;SDS011;9233;51.312;6.512;2022-07-15T09:39:12;3.60;;;0.90;;
18214;SDS011;9233;51.312;6.512;2022-07-15T09:42:04;2.93;;;0.70;;
18214;SDS011;9233;51.312;6.512;2022-07-15T09:44:51;3.70;;;0.77;;
18214;SDS011;9233;51.312;6.512;2022-07-15T09:47:38;2.23;;;0.80;;
18214;SDS011;9233;51.312;6.512;2022-07-15T09:50:33;2.50;;;0.53;;
18214;SDS011;9233;51.312;6.512;2022-07-15T09:53:20;3.03;;;0.80;;
18214;SDS011;9233;51.312;6.512;2022-07-15T09:56:07;1.50;;;0.70;;
18214;SDS011;9233;51.312;6.512;2022-07-15T09:58:55;1.33;;;0.60;;
18214;SDS011;9233;51.312;6.512;2022-07-15T10:01:42;2.13;;;0.50;;
18214;SDS011;9233;51.312;6.512;2022-07-15T10:04:32;1.30;;;0.50;;
18214;SDS011;9233;51.312;6.512;2022-07-15T10:07:20;1.23;;;0.60;;
18214;SDS011;9233;51.312;6.512;2022-07-15T10:10:07;2.30;;;0.73;;
18214;SDS011;9233;51.312;6.512;2022-07-15T10:12:56;1.27;;;0.60;;
18214;SDS011;9233;51.312;6.512;2022-07-15T10:15:52;1.87;;;0.50;;
18214;SDS011;9233;51.312;6.512;2022-07-15T10:18:44;6.00;;;0.60;;
18214;SDS011;9233;51.312;6.512;2022-07-15T10:21:38;2.67;;;0.70;;
18214;SDS011;9233;51.312;6.512;2022-07-15T10:24:34;2.17;;;0.50;;
18214;SDS011;9233;51.312;6.512;2022-07-15T10:27:38;4.57;;;0.77;;
18214;SDS011;9233;51.312;6.512;2022-07-15T10:30:32;2.00;;;0.70;;
18214;SDS011;9233;51.312;6.512;2022-07-15T10:33:19;1.20;;;0.50;;
18214;SDS011;9233;51.312;6.512;2022-07-15T10:36:06;1.23;;;0.40;;
18214;SDS011;9233;51.312;6.512;2022-07-15T10:39:00;1.67;;;0.50;;
18214;SDS011;9233;51.312;6.512;2022-07-15T10:41:52;2.10;;;0.50;;
18214;SDS011;9233;51.312;6.512;2022-07-15T10:44:47;2.23;;;1.00;;
18214;SDS011;9233;51.312;6.512;2022-07-15T10:47:35;2.37;;;0.60;;
18214;SDS011;9233;51.312;6.512;2022-07-15T10:50:34;6.00;;;0.70;;
18214;SDS011;9233;51.312;6.512;2022-07-15T10:53:22;0.90;;;0.50;;
18214;SDS011;9233;51.312;6.512;2022-07-15T10:56:26;1.07;;;0.50;;
18214;SDS011;9233;51.312;6.512;2022-07-15T10:59:15;1.57;;;0.57;;
18214;SDS011;9233;51.312;6.512;2022-07-15T11:02:12;4.00;;;0.50;;
18214;SDS011;9233;51.312;6.512;2022-07-15T11:05:17;1.20;;;0.47;;
18214;SDS011;9233;51.312;6.512;2022-07-15T11:11:49;1.77;;;0.50;;
18214;SDS011;9233;51.312;6.512;2022-07-15T11:14:40;2.57;;;0.70;;
18214;SDS011;9233;51.312;6.512;2022-07-15T11:17:37;1.80;;;0.50;;
18214;SDS011;9233;51.312;6.512;2022-07-15T11:20:32;1.57;;;0.63;;
18214;SDS011;9233;51.312;6.512;2022-07-15T11:23:20;5.87;;;0.80;;
18214;SDS011;9233;51.312;6.512;2022-07-15T11:26:16;2.87;;;0.93;;
18214;SDS011;9233;51.312;6.512;2022-07-15T11:29:02;3.17;;;0.70;;
18214;SDS011;9233;51.312;6.512;2022-07-15T11:31:50;1.63;;;0.60;;
18214;SDS011;9233;51.312;6.512;2022-07-15T11:34:41;2.00;;;0.70;;
18214;SDS011;9233;51.312;6.512;2022-07-15T11:37:30;1.63;;;0.50;;
18214;SDS011;9233;51.312;6.512;2022-07-15T11:40:17;2.67;;;0.60;;
18214;SDS011;9233;51.312;6.512;2022-07-15T11:43:19;2.17;;;0.60;;
18214;SDS011;9233;51.312;6.512;2022-07-15T11:46:24;2.93;;;0.80;;
18214;SDS011;9233;51.312;6.512;2022-07-15T11:49:18;1.70;;;0.70;;
18214;SDS011;9233;51.312;6.512;2022-07-15T11:52:12;2.17;;;0.67;;
18214;SDS011;9233;51.312;6.512;2022-07-15T11:55:04;1.33;;;0.50;;
18214;SDS011;9233;51.312;6.512;2022-07-15T11:57:51;3.27;;;0.60;;
18214;SDS011;9233;51.312;6.512;2022-07-15T12:00:38;2.40;;;0.50;;
18214;SDS011;9233;51.312;6.512;2022-07-15T12:03:29;1.60;;;0.53;;
18214;SDS011;9233;51.312;6.512;2022-07-15T12:06:19;1.77;;;0.43;;
18214;SDS011;9233;51.312;6.512;2022-07-15T12:09:06;2.50;;;0.60;;
18214;SDS011;9233;51.312;6.512;2022-07-15T12:11:54;2.00;;;0.50;;
18214;SDS011;9233;51.312;6.512;2022-07-15T12:14:40;1.20;;;0.50;;
18214;SDS011;9233;51.312;6.512;2022-07-15T12:17:28;1.03;;;0.60;;
18214;SDS011;9233;51.312;6.512;2022-07-15T12:20:14;1.40;;;0.57;;
18214;SDS011;9233;51.312;6.512;2022-07-15T12:23:04;3.23;;;0.70;;
18214;SDS011;9233;51.312;6.512;2022-07-15T12:26:00;1.37;;;0.50;;
18214;SDS011;9233;51.312;6.512;2022-07-15T12:28:51;4.73;;;0.93;;
18214;SDS011;9233;51.312;6.512;2022-07-15T12:31:40;1.17;;;0.63;;
18214;SDS011;9233;51.312;6.512;2022-07-15T12:34:47;1.87;;;0.50;;
18214;SDS011;9233;51.312;6.512;2022-07-15T12:37:48;2.47;;;0.50;;
18214;SDS011;9233;51.312;6.512;2022-07-15T12:40:37;3.80;;;0.50;;
18214;SDS011;9233;51.312;6.512;2022-07-15T12:49:49;3.50;;;0.57;;
18214;SDS011;9233;51.312;6.512;2022-07-15T12:52:37;1.40;;;0.60;;
18214;SDS011;9233;51.312;6.512;2022-07-15T12:55:25;5.50;;;0.77;;
18214;SDS011;9233;51.312;6.512;2022-07-15T12:58:14;1.47;;;0.70;;
18214;SDS011;9233;51.312;6.512;2022-07-15T13:01:08;2.73;;;0.60;;
18214;SDS011;9233;51.312;6.512;2022-07-15T13:03:55;2.50;;;0.70;;
18214;SDS011;9233;51.312;6.512;2022-07-15T13:06:42;0.90;;;0.60;;
18214;SDS011;9233;51.312;6.512;2022-07-15T13:09:29;0.83;;;0.40;;
18214;SDS011;9233;51.312;6.512;2022-07-15T13:12:15;1.47;;;0.53;;
18214;SDS011;9233;51.312;6.512;2022-07-15T13:15:04;1.07;;;0.80;;
18214;SDS011;9233;51.312;6.512;2022-07-15T13:17:51;2.73;;;0.50;;
18214;SDS011;9233;51.312;6.512;2022-07-15T13:20:38;2.07;;;0.43;;
18214;SDS011;9233;51.312;6.512;2022-07-15T13:23:25;1.37;;;0.53;;
18214;SDS011;9233;51.312;6.512;2022-07-15T13:26:12;1.50;;;0.40;;
18214;SDS011;9233;51.312;6.512;2022-07-15T13:28:58;1.73;;;0.70;;
18214;SDS011;9233;51.312;6.512;2022-07-15T13:31:46;2.23;;;0.53;;
18214;SDS011;9233;51.312;6.512;2022-07-15T13:34:33;2.27;;;0.60;;
18214;SDS011;9233;51.312;6.512;2022-07-15T13:37:19;1.17;;;0.60;;
18214;SDS011;9233;51.312;6.512;2022-07-15T13:40:07;0.63;;;0.40;;
18214;SDS011;9233;51.312;6.512;2022-07-15T13:42:55;0.63;;;0.50;;
18214;SDS011;9233;51.312;6.512;2022-07-15T13:45:42;1.43;;;0.43;;
18214;SDS011;9233;51.312;6.512;2022-07-15T13:48:30;2.23;;;0.57;;
18214;SDS011;9233;51.312;6.512;2022-07-15T13:51:16;1.10;;;0.60;;
18214;SDS011;9233;51.312;6.512;2022-07-15T13:54:08;0.70;;;0.70;;
18214;SDS011;9233;51.312;6.512;2022-07-15T13:56:55;3.43;;;0.40;;
18214;SDS011;9233;51.312;6.512;2022-07-15T13:59:41;2.97;;;0.73;;
18214;SDS011;9233;51.312;6.512;2022-07-15T14:02:28;1.47;;;0.40;;
18214;SDS011;9233;51.312;6.512;2022-07-15T14:05:16;1.30;;;0.43;;
18214;SDS011;9233;51.312;6.512;2022-07-15T14:08:03;1.67;;;0.50;;
18214;SDS011;9233;51.312;6.512;2022-07-15T14:10:50;7.63;;;3.77;;
18214;SDS011;9233;51.312;6.512;2022-07-15T14:13:37;4.00;;;1.37;;
18214;SDS011;9233;51.312;6.512;2022-07-15T14:16:24;1.80;;;1.10;;
18214;SDS011;9233;51.312;6.512;2022-07-15T14:19:10;2.03;;;0.97;;
18214;SDS011;9233;51.312;6.512;2022-07-15T14:21:58;4.53;;;1.40;;
18214;SDS011;9233;51.312;6.512;2022-07-15T14:24:45;3.60;;;1.80;;
18214;SDS011;9233;51.312;6.512;2022-07-15T14:27:31;5.57;;;1.10;;
18214;SDS011;9233;51.312;6.512;2022-07-15T14:30:18;3.23;;;1.00;;
18214;SDS011;9233;51.312;6.512;2022-07-15T14:33:05;2.73;;;0.87;;
18214;SDS011;9233;51.312;6.512;2022-07-15T14:35:51;1.80;;;0.60;;
18214;SDS011;9233;51.312;6.512;2022-07-15T14:38:39;0.80;;;0.43;;
18214;SDS011;9233;51.312;6.512;2022-07-15T14:41:26;2.67;;;0.70;;
18214;SDS011;9233;51.312;6.512;2022-07-15T14:44:12;1.77;;;0.60;;
18214;SDS011;9233;51.312;6.512;2022-07-15T14:46:59;1.77;;;0.67;;
18214;SDS011;9233;51.312;6.512;2022-07-15T14:49:46;1.37;;;0.53;;
18214;SDS011;9233;51.312;6.512;2022-07-15T14:52:32;3.23;;;0.80;;
18214;SDS011;9233;51.312;6.512;2022-07-15T14:55:20;0.67;;;0.40;;
18214;SDS011;9233;51.312;6.512;2022-07-15T14:58:07;2.03;;;0.50;;
18214;SDS011;9233;51.312;6.512;2022-07-15T15:00:54;1.80;;;0.50;;
18214;SDS011;9233;51.312;6.512;2022-07-15T15:03:40;1.43;;;0.50;;
18214;SDS011;9233;51.312;6.512;2022-07-15T15:06:27;2.97;;;0.70;;
18214;SDS011;9233;51.312;6.512;2022-07-15T15:09:13;3.40;;;0.43;;
18214;SDS011;9233;51.312;6.512;2022-07-15T15:12:01;0.67;;;0.40;;
18214;SDS011;9233;51.312;6.512;2022-07-15T15:14:48;0.63;;;0.33;;
18214;SDS011;9233;51.312;6.512;2022-07-15T15:17:34;2.53;;;0.50;;
18214;SDS011;9233;51.312;6.512;2022-07-15T15:20:21;2.77;;;0.70;;
18214;SDS011;9233;51.312;6.512;2022-07-15T15:23:08;0.60;;;0.57;;
18214;SDS011;9233;51.312;6.512;2022-07-15T15:25:55;4.60;;;0.80;;
18214;SDS011;9233;51.312;6.512;2022-07-15T15:29:00;1.87;;;0.70;;
18214;SDS011;9233;51.312;6.512;2022-07-15T15:31:47;4.50;;;0.70;;
18214;SDS011;9233;51.312;6.512;2022-07-15T15:34:34;1.43;;;0.70;;
18214;SDS011;9233;51.312;6.512;2022-07-15T15:37:22;0.83;;;0.43;;
18214;SDS011;9233;51.312;6.512;2022-07-15T15:40:08;1.40;;;0.50;;
18214;SDS011;9233;51.312;6.512;2022-07-15T15:42:55;0.63;;;0.50;;
18214;SDS011;9233;51.312;6.512;2022-07-15T15:45:43;1.73;;;0.53;;
18214;SDS011;9233;51.312;6.512;2022-07-15T15:48:30;1.50;;;0.40;;
18214;SDS011;9233;51.312;6.512;2022-07-15T15:51:16;1.00;;;0.50;;
18214;SDS011;9233;51.312;6.512;2022-07-15T15:54:03;1.60;;;0.60;;
18214;SDS011;9233;51.312;6.512;2022-07-15T15:56:49;0.63;;;0.40;;
18214;SDS011;9233;51.312;6.512;2022-07-15T15:59:36;1.10;;;0.60;;
18214;SDS011;9233;51.312;6.512;2022-07-15T16:02:24;3.03;;;0.40;;
18214;SDS011;9233;51.312;6.512;2022-07-15T16:05:11;2.10;;;0.60;;
18214;SDS011;9233;51.312;6.512;2022-07-15T16:07:57;2.93;;;0.70;;
18214;SDS011;9233;51.312;6.512;2022-07-15T16:10:44;1.00;;;0.70;;
18214;SDS011;9233;51.312;6.512;2022-07-15T16:13:31;1.37;;;0.80;;
18214;SDS011;9233;51.312;6.512;2022-07-15T16:16:17;1.10;;;0.60;;
18214;SDS011;9233;51.312;6.512;2022-07-15T16:19:06;0.40;;;0.40;;
18214;SDS011;9233;51.312;6.512;2022-07-15T16:21:52;0.93;;;0.50;;
18214;SDS011;9233;51.312;6.512;2022-07-15T16:24:56;3.67;;;0.60;;
18214;SDS011;9233;51.312;6.512;2022-07-15T16:27:43;2.23;;;0.57;;
18214;SDS011;9233;51.312;6.512;2022-07-15T16:30:30;1.67;;;0.50;;
18214;SDS011;9233;51.312;6.512;2022-07-15T16:33:16;1.37;;;0.60;;
18214;SDS011;9233;51.312;6.512;2022-07-15T16:36:05;0.77;;;0.40;;
18214;SDS011;9233;51.312;6.512;2022-07-15T16:38:51;5.57;;;2.83;;
18214;SDS011;9233;51.312;6.512;2022-07-15T16:41:38;5.70;;;2.40;;
18214;SDS011;9233;51.312;6.512;2022-07-15T16:44:25;3.00;;;1.27;;
18214;SDS011;9233;51.312;6.512;2022-07-15T16:47:11;2.60;;;0.90;;
18214;SDS011;9233;51.312;6.512;2022-07-15T16:49:58;0.70;;;0.50;;
18214;SDS011;9233;51.312;6.512;2022-07-15T16:52:46;3.27;;;0.50;;
18214;SDS011;9233;51.312;6.512;2022-07-15T16:55:33;1.80;;;0.50;;
18214;SDS011;9233;51.312;6.512;2022-07-15T16:58:19;1.37;;;0.40;;
18214;SDS011;9233;51.312;6.512;2022-07-15T17:01:06;1.40;;;0.50;;
18214;SDS011;9233;51.312;6.512;2022-07-15T17:03:52;2.23;;;0.60;;
18214;SDS011;9233;51.312;6.512;2022-07-15T17:06:39;0.93;;;0.60;;
18214;SDS011;9233;51.312;6.512;2022-07-15T17:09:28;1.77;;;0.40;;
18214;SDS011;9233;51.312;6.512;2022-07-15T17:12:15;0.80;;;0.40;;
18214;SDS011;9233;51.312;6.512;2022-07-15T17:15:02;1.40;;;0.50;;
18214;SDS011;9233;51.312;6.512;2022-07-15T17:17:49;0.80;;;0.50;;
18214;SDS011;9233;51.312;6.512;2022-07-15T17:20:35;0.90;;;0.50;;
18214;SDS011;9233;51.312;6.512;2022-07-15T17:23:22;1.07;;;0.50;;